createdAt,value
2022-12-27T00:02:07.924Z,1.10
2022-12-27T00:04:35.318Z,1.00
2022-12-27T00:07:02.645Z,1.15
2022-12-27T00:09:29.983Z,0.98
2022-12-27T00:11:59.927Z,1.00
2022-12-27T00:14:27.681Z,1.02
2022-12-27T00:16:54.975Z,0.88
2022-12-27T00:19:22.380Z,1.10
2022-12-27T00:21:49.685Z,0.80
2022-12-27T00:24:17.052Z,1.00
2022-12-27T00:26:44.332Z,0.90
2022-12-27T00:29:11.649Z,0.95
2022-12-27T00:31:39.085Z,0.80
2022-12-27T00:34:07.697Z,0.75
2022-12-27T00:36:35.100Z,0.80
2022-12-27T00:39:02.579Z,0.80
2022-12-27T00:41:29.959Z,0.82
2022-12-27T00:43:57.338Z,0.98
2022-12-27T00:46:24.652Z,0.85
2022-12-27T00:48:52.220Z,1.10
2022-12-27T00:51:23.429Z,0.95
2022-12-27T00:53:51.228Z,1.70
2022-12-27T00:56:28.744Z,1.08
2022-12-27T00:58:57.147Z,0.90
2022-12-27T01:01:25.488Z,1.20
2022-12-27T01:03:53.121Z,1.00
2022-12-27T01:06:21.966Z,1.10
2022-12-27T01:08:49.378Z,1.10
2022-12-27T01:11:17.185Z,1.20
2022-12-27T01:13:44.655Z,1.10
2022-12-27T01:16:13.913Z,1.30
2022-12-27T01:18:41.257Z,0.95
2022-12-27T01:21:09.392Z,1.00
2022-12-27T01:23:36.934Z,1.17
2022-12-27T01:26:05.962Z,1.10
2022-12-27T01:28:33.702Z,1.20
2022-12-27T01:31:08.272Z,1.20
2022-12-27T01:33:35.763Z,1.02
2022-12-27T01:36:13.425Z,1.10
2022-12-27T01:38:42.814Z,1.10
2022-12-27T01:41:36.363Z,1.33
2022-12-27T01:44:49.504Z,1.20
2022-12-27T01:47:23.480Z,1.20
2022-12-27T01:50:05.944Z,1.17
2022-12-27T01:52:42.357Z,1.17
2022-12-27T01:55:35.212Z,1.10
2022-12-27T01:58:21.714Z,1.10
2022-12-27T02:00:50.118Z,2.25
2022-12-27T02:03:33.137Z,1.55
2022-12-27T02:06:01.565Z,1.40
2022-12-27T02:08:32.615Z,1.52
2022-12-27T02:10:59.901Z,1.30
2022-12-27T02:13:27.723Z,1.30
2022-12-27T02:15:55.026Z,1.38
2022-12-27T02:18:22.362Z,1.30
2022-12-27T02:21:24.879Z,1.30
2022-12-27T02:24:13.342Z,1.52
2022-12-27T02:27:03.746Z,1.60
2022-12-27T02:29:43.960Z,1.45
2022-12-27T02:32:19.945Z,1.77
2022-12-27T02:35:00.468Z,1.48
2022-12-27T02:37:29.433Z,2.03
2022-12-27T02:39:56.752Z,1.42
2022-12-27T02:42:44.074Z,1.60
2022-12-27T02:45:36.840Z,1.70
2022-12-27T02:48:30.160Z,1.80
2022-12-27T02:51:36.179Z,1.60
2022-12-27T02:54:08.525Z,1.70
2022-12-27T02:57:08.924Z,1.38
2022-12-27T02:59:58.916Z,1.50
2022-12-27T03:03:14.069Z,1.60
2022-12-27T03:06:10.239Z,1.60
2022-12-27T03:08:43.473Z,1.42
2022-12-27T03:11:29.312Z,1.80
2022-12-27T03:14:34.319Z,1.42
2022-12-27T03:17:05.961Z,1.60
2022-12-27T03:19:55.627Z,1.60
2022-12-27T03:22:42.815Z,1.45
2022-12-27T03:25:28.064Z,1.63
2022-12-27T03:28:28.802Z,1.85
2022-12-27T03:31:22.635Z,1.38
2022-12-27T03:33:50.353Z,1.20
2022-12-27T03:36:40.597Z,1.38
2022-12-27T03:39:27.652Z,1.60
2022-12-27T03:42:19.373Z,1.30
2022-12-27T03:44:46.673Z,1.40
2022-12-27T03:47:38.772Z,1.40
2022-12-27T03:50:21.921Z,1.30
2022-12-27T03:52:54.754Z,1.58
2022-12-27T03:55:22.052Z,1.70
2022-12-27T03:57:49.425Z,1.30
2022-12-27T04:00:16.967Z,1.45
2022-12-27T04:02:45.509Z,1.40
2022-12-27T04:05:12.990Z,1.50
2022-12-27T04:07:58.701Z,1.67
2022-12-27T04:10:44.422Z,1.50
2022-12-27T04:13:30.223Z,1.90
2022-12-27T04:16:16.076Z,1.60
2022-12-27T04:19:02.647Z,1.60
2022-12-27T04:21:48.424Z,1.70
2022-12-27T04:24:34.078Z,1.52
2022-12-27T04:27:19.870Z,1.45
2022-12-27T04:30:05.761Z,1.40
2022-12-27T04:32:51.569Z,1.70
2022-12-27T04:35:18.871Z,1.40
2022-12-27T04:37:46.151Z,1.40
2022-12-27T04:40:32.024Z,1.33
2022-12-27T04:43:17.811Z,1.40
2022-12-27T04:46:03.956Z,1.20
2022-12-27T04:48:50.185Z,1.38
2022-12-27T04:51:35.834Z,1.30
2022-12-27T04:54:21.719Z,1.20
2022-12-27T04:56:49.058Z,1.20
2022-12-27T04:59:34.944Z,1.10
2022-12-27T05:02:05.320Z,1.30
2022-12-27T05:04:33.937Z,1.20
2022-12-27T05:07:23.999Z,1.23
2022-12-27T05:10:09.775Z,1.30
2022-12-27T05:12:55.580Z,1.90
2022-12-27T05:15:22.857Z,1.20
2022-12-27T05:17:50.179Z,1.40
2022-12-27T05:20:17.483Z,1.20
2022-12-27T05:23:03.383Z,1.33
2022-12-27T05:25:38.269Z,1.10
2022-12-27T05:28:06.595Z,1.50
2022-12-27T05:30:34.891Z,1.20
2022-12-27T05:33:02.451Z,1.30
2022-12-27T05:35:30.215Z,2.22
2022-12-27T05:37:57.614Z,1.15
2022-12-27T05:40:25.054Z,1.23
2022-12-27T05:42:52.596Z,1.10
2022-12-27T05:45:20.136Z,1.00
2022-12-27T05:47:48.385Z,1.13
2022-12-27T05:50:15.770Z,1.10
2022-12-27T05:52:43.131Z,1.10
2022-12-27T05:55:10.575Z,1.30
2022-12-27T05:57:37.930Z,1.50
2022-12-27T06:00:06.032Z,1.17
2022-12-27T06:05:08.096Z,1.15
2022-12-27T06:07:36.828Z,1.23
2022-12-27T06:10:05.796Z,1.23
2022-12-27T06:12:33.184Z,1.50
2022-12-27T06:15:00.499Z,1.30
2022-12-27T06:17:27.802Z,1.30
2022-12-27T06:19:57.198Z,1.55
2022-12-27T06:22:24.813Z,1.80
2022-12-27T06:24:52.175Z,1.88
2022-12-27T06:27:19.444Z,1.65
2022-12-27T06:29:46.803Z,1.60
2022-12-27T06:32:15.964Z,1.40
2022-12-27T06:34:44.075Z,1.90
2022-12-27T06:37:12.302Z,2.38
2022-12-27T06:39:39.657Z,2.00
2022-12-27T06:42:07.024Z,1.40
2022-12-27T06:44:34.344Z,1.65
2022-12-27T06:47:01.767Z,1.70
2022-12-27T06:49:29.390Z,1.70
2022-12-27T06:51:59.729Z,1.70
2022-12-27T06:54:27.542Z,1.83
2022-12-27T06:56:56.267Z,1.60
2022-12-27T06:59:24.126Z,1.92
2022-12-27T07:01:51.623Z,1.95
2022-12-27T07:04:19.109Z,2.10
2022-12-27T07:06:46.446Z,1.95
2022-12-27T07:09:13.743Z,1.90
2022-12-27T07:11:41.071Z,1.92
2022-12-27T07:14:09.550Z,2.10
2022-12-27T07:16:37.505Z,1.92
2022-12-27T07:19:04.897Z,1.70
2022-12-27T07:21:32.726Z,1.90
2022-12-27T07:24:00.049Z,2.60
2022-12-27T07:26:29.881Z,2.65
2022-12-27T07:28:59.195Z,2.08
2022-12-27T07:31:29.776Z,1.80
2022-12-27T07:33:57.749Z,1.85
2022-12-27T07:36:26.501Z,2.03
2022-12-27T07:38:53.870Z,2.53
2022-12-27T07:41:21.200Z,2.30
2022-12-27T07:43:48.575Z,1.83
2022-12-27T07:46:20.552Z,2.28
2022-12-27T07:48:48.097Z,1.88
2022-12-27T07:51:16.553Z,2.08
2022-12-27T07:53:43.926Z,2.00
2022-12-27T07:56:13.499Z,2.00
2022-12-27T07:58:44.651Z,3.33
2022-12-27T08:01:12.380Z,3.30
2022-12-27T08:03:40.264Z,4.07
2022-12-27T08:06:08.252Z,4.32
2022-12-27T08:08:42.893Z,4.00
2022-12-27T08:11:10.214Z,5.93
2022-12-27T08:13:37.635Z,3.40
2022-12-27T08:16:05.390Z,2.75
2022-12-27T08:18:33.455Z,2.50
2022-12-27T08:21:00.768Z,2.50
2022-12-27T08:23:28.051Z,2.40
2022-12-27T08:25:55.361Z,2.35
2022-12-27T08:28:22.655Z,2.17
2022-12-27T08:30:49.973Z,2.45
2022-12-27T08:33:17.339Z,2.30
2022-12-27T08:35:54.017Z,2.55
2022-12-27T08:38:21.606Z,2.40
2022-12-27T08:40:48.913Z,2.20
2022-12-27T08:43:16.307Z,2.50
2022-12-27T08:45:43.645Z,2.15
2022-12-27T08:48:11.104Z,2.60
2022-12-27T08:50:38.502Z,2.88
2022-12-27T08:53:06.723Z,3.42
2022-12-27T08:55:34.256Z,2.90
2022-12-27T08:58:09.358Z,3.10
2022-12-27T09:00:42.909Z,3.38
2022-12-27T09:03:10.337Z,3.05
2022-12-27T09:05:41.688Z,2.90
2022-12-27T09:08:10.630Z,2.88
2022-12-27T09:10:38.363Z,2.70
2022-12-27T09:13:05.732Z,2.67
2022-12-27T09:15:33.143Z,2.35
2022-12-27T09:18:01.434Z,2.55
2022-12-27T09:20:28.746Z,2.83
2022-12-27T09:22:56.016Z,3.10
2022-12-27T09:25:23.367Z,3.13
2022-12-27T09:27:50.728Z,2.45
2022-12-27T09:30:18.152Z,2.50
2022-12-27T09:32:45.453Z,2.50
2022-12-27T09:35:12.744Z,2.30
2022-12-27T09:37:40.029Z,2.30
2022-12-27T09:40:08.058Z,1.88
2022-12-27T09:43:00.715Z,2.20
2022-12-27T09:45:37.018Z,1.80
2022-12-27T09:48:33.398Z,1.70
2022-12-27T09:51:06.897Z,1.70
2022-12-27T09:53:37.177Z,1.73
2022-12-27T09:56:05.043Z,1.73
2022-12-27T09:58:43.218Z,1.50
2022-12-27T10:01:26.358Z,1.42
2022-12-27T10:03:54.130Z,1.45
2022-12-27T10:06:30.595Z,1.73
2022-12-27T10:09:21.404Z,1.70
2022-12-27T10:12:11.770Z,1.60
2022-12-27T10:14:59.818Z,1.70
2022-12-27T10:17:53.459Z,1.50
2022-12-27T10:20:48.999Z,1.60
2022-12-27T10:23:20.813Z,1.52
2022-12-27T10:25:48.185Z,1.30
2022-12-27T10:28:23.009Z,1.50
2022-12-27T10:30:50.381Z,1.45
2022-12-27T10:33:28.362Z,2.05
2022-12-27T10:35:55.773Z,1.08
2022-12-27T10:38:24.481Z,2.72
2022-12-27T10:40:56.431Z,1.20
2022-12-27T10:43:26.595Z,0.90
2022-12-27T10:45:53.981Z,1.10
2022-12-27T10:48:22.015Z,1.13
2022-12-27T10:50:53.426Z,0.90
2022-12-27T10:53:27.482Z,1.02
2022-12-27T10:56:15.483Z,1.13
2022-12-27T10:58:56.516Z,1.10
2022-12-27T11:01:29.953Z,1.20
2022-12-27T11:04:20.610Z,0.82
2022-12-27T11:06:59.924Z,1.10
2022-12-27T11:09:28.475Z,1.20
2022-12-27T11:12:24.455Z,1.10
2022-12-27T11:15:02.599Z,1.10
2022-12-27T11:17:41.192Z,1.40
2022-12-27T11:20:12.247Z,1.20
2022-12-27T11:22:49.781Z,1.25
2022-12-27T11:25:17.095Z,1.08
2022-12-27T11:27:48.568Z,1.20
2022-12-27T11:30:42.330Z,0.93
2022-12-27T11:33:24.601Z,1.02
2022-12-27T11:35:54.270Z,1.33
2022-12-27T11:38:27.364Z,1.10
2022-12-27T11:41:14.337Z,1.08
2022-12-27T11:43:49.387Z,1.30
2022-12-27T11:46:30.995Z,1.50
2022-12-27T11:48:58.817Z,1.35
2022-12-27T11:51:57.257Z,0.93
2022-12-27T11:54:33.437Z,1.25
2022-12-27T11:57:41.119Z,1.50
2022-12-27T12:00:23.784Z,1.65
2022-12-27T12:03:08.576Z,1.20
2022-12-27T12:05:41.775Z,1.10
2022-12-27T12:08:20.366Z,1.27
2022-12-27T12:11:23.043Z,1.20
2022-12-27T12:14:23.668Z,1.17
2022-12-27T12:16:56.991Z,1.50
2022-12-27T12:20:02.738Z,1.50
2022-12-27T12:23:00.013Z,1.33
2022-12-27T12:25:48.086Z,1.30
2022-12-27T12:28:57.162Z,1.40
2022-12-27T12:31:35.845Z,1.40
2022-12-27T12:34:32.330Z,1.30
2022-12-27T12:37:25.651Z,1.33
2022-12-27T12:40:08.092Z,1.23
2022-12-27T12:42:43.966Z,1.60
2022-12-27T12:45:24.849Z,1.67
2022-12-27T12:47:52.222Z,1.55
2022-12-27T12:50:52.661Z,1.90
2022-12-27T12:53:41.774Z,1.80
2022-12-27T12:56:49.741Z,1.50
2022-12-27T12:59:26.823Z,1.70
2022-12-27T13:02:12.200Z,1.80
2022-12-27T13:05:11.236Z,1.30
2022-12-27T13:08:11.014Z,1.40
2022-12-27T13:11:03.452Z,1.40
2022-12-27T13:13:36.839Z,1.65
2022-12-27T13:16:10.278Z,1.77
2022-12-27T13:18:56.359Z,1.57
2022-12-27T13:21:27.937Z,2.00
2022-12-27T13:24:07.659Z,1.52
2022-12-27T13:26:52.534Z,1.60
2022-12-27T13:29:38.348Z,2.47
2022-12-27T13:32:27.778Z,1.67
2022-12-27T13:35:02.963Z,1.50
2022-12-27T13:37:59.613Z,1.92
2022-12-27T13:40:51.626Z,1.70
2022-12-27T13:43:38.840Z,1.35
2022-12-27T13:46:25.761Z,1.52
2022-12-27T13:49:07.855Z,1.52
2022-12-27T13:51:48.046Z,1.67
2022-12-27T13:54:39.665Z,1.98
2022-12-27T13:57:53.305Z,1.60
2022-12-27T14:00:22.221Z,1.80
2022-12-27T14:02:49.598Z,1.77
2022-12-27T14:05:35.605Z,1.85
2022-12-27T14:08:09.876Z,1.80
2022-12-27T14:13:08.477Z,1.60
2022-12-27T14:15:58.912Z,2.08
2022-12-27T14:18:38.227Z,1.40
2022-12-27T14:21:17.613Z,1.73
2022-12-27T14:24:18.799Z,1.98
2022-12-27T14:26:58.167Z,1.80
2022-12-27T14:29:33.662Z,1.70
2022-12-27T14:32:09.080Z,2.38
2022-12-27T14:34:42.182Z,1.83
2022-12-27T14:37:39.335Z,1.88
2022-12-27T14:40:34.789Z,2.22
2022-12-27T14:43:42.539Z,2.20
2022-12-27T14:46:30.950Z,1.98
2022-12-27T14:49:31.966Z,2.75
2022-12-27T14:52:12.827Z,2.20
2022-12-27T14:55:05.386Z,3.15
2022-12-27T14:57:33.985Z,2.50
2022-12-27T15:00:17.419Z,2.53
2022-12-27T15:03:15.360Z,2.63
2022-12-27T15:05:48.455Z,2.40
2022-12-27T15:08:58.732Z,2.38
2022-12-27T15:12:11.760Z,2.60
2022-12-27T15:14:43.964Z,2.78
2022-12-27T15:17:16.921Z,2.80
2022-12-27T15:20:07.426Z,2.50
2022-12-27T15:22:59.397Z,2.92
2022-12-27T15:25:47.610Z,2.30
2022-12-27T15:28:39.076Z,2.55
2022-12-27T15:31:22.732Z,3.20
2022-12-27T15:34:10.378Z,5.68
2022-12-27T15:36:42.564Z,9.82
2022-12-27T15:39:34.943Z,4.82
2022-12-27T15:42:22.911Z,3.50
2022-12-27T15:45:01.071Z,2.90
2022-12-27T15:47:43.678Z,3.38
2022-12-27T15:50:39.548Z,3.58
2022-12-27T15:53:35.924Z,3.80
2022-12-27T15:56:24.415Z,3.53
2022-12-27T15:59:39.583Z,3.25
2022-12-27T16:02:26.387Z,3.70
2022-12-27T16:05:09.037Z,4.10
2022-12-27T16:07:43.115Z,4.40
2022-12-27T16:10:29.197Z,4.40
2022-12-27T16:13:11.318Z,4.78
2022-12-27T16:15:43.338Z,4.10
2022-12-27T16:18:19.879Z,5.00
2022-12-27T16:21:05.649Z,4.18
2022-12-27T16:23:34.011Z,4.05
2022-12-27T16:26:02.185Z,4.32
2022-12-27T16:28:30.219Z,4.43
2022-12-27T16:31:06.333Z,4.10
2022-12-27T16:33:40.039Z,4.10
2022-12-27T16:36:19.546Z,4.70
2022-12-27T16:39:11.553Z,5.85
2022-12-27T16:41:57.020Z,5.30
2022-12-27T16:44:24.358Z,5.00
2022-12-27T16:47:21.334Z,4.63
2022-12-27T16:50:04.156Z,5.68
2022-12-27T16:52:47.385Z,5.07
2022-12-27T16:55:49.055Z,4.95
2022-12-27T16:58:16.363Z,4.18
2022-12-27T17:00:44.771Z,4.28
2022-12-27T17:03:20.860Z,4.38
2022-12-27T17:06:21.631Z,4.45
2022-12-27T17:08:37.101Z,4.40
2022-12-27T17:11:23.578Z,4.20
2022-12-27T17:13:55.361Z,4.25
2022-12-27T17:16:26.776Z,4.35
2022-12-27T17:18:57.852Z,4.47
2022-12-27T17:21:30.442Z,6.57
2022-12-27T17:24:00.220Z,6.13
2022-12-27T17:26:55.214Z,5.68
2022-12-27T17:29:31.667Z,6.18
2022-12-27T17:32:28.819Z,8.60
2022-12-27T17:35:24.517Z,11.23
2022-12-27T17:38:11.796Z,6.93
2022-12-27T17:40:46.173Z,6.32
2022-12-27T17:43:43.137Z,6.10
2022-12-27T17:46:45.665Z,6.07
2022-12-27T17:49:13.012Z,5.57
2022-12-27T17:52:02.002Z,5.57
2022-12-27T17:54:48.185Z,5.32
2022-12-27T17:57:35.092Z,5.30
2022-12-27T18:00:02.788Z,6.55
2022-12-27T18:02:39.282Z,5.32
2022-12-27T18:05:11.155Z,5.22
2022-12-27T18:07:38.472Z,5.53
2022-12-27T18:10:25.649Z,5.55
2022-12-27T18:12:54.553Z,5.25
2022-12-27T18:15:23.589Z,4.35
2022-12-27T18:17:55.766Z,14.98
2022-12-27T18:20:26.162Z,4.53
2022-12-27T18:23:03.038Z,4.30
2022-12-27T18:25:36.499Z,4.63
2022-12-27T18:28:19.114Z,5.07
2022-12-27T18:30:57.034Z,4.70
2022-12-27T18:33:32.909Z,4.35
2022-12-27T18:36:01.362Z,5.35
2022-12-27T18:38:52.266Z,5.78
2022-12-27T18:41:20.450Z,5.32
2022-12-27T18:43:49.343Z,5.25
2022-12-27T18:46:27.377Z,6.22
2022-12-27T18:48:54.709Z,5.35
2022-12-27T18:51:35.112Z,5.15
2022-12-27T18:54:02.462Z,4.82
2022-12-27T18:56:33.364Z,5.15
2022-12-27T18:59:06.594Z,4.75
2022-12-27T19:01:42.780Z,3.33
2022-12-27T19:04:19.165Z,4.97
2022-12-27T19:06:50.554Z,4.35
2022-12-27T19:09:18.445Z,4.05
2022-12-27T19:11:53.591Z,4.45
2022-12-27T19:14:21.354Z,4.22
2022-12-27T19:16:54.157Z,6.32
2022-12-27T19:19:26.526Z,6.82
2022-12-27T19:21:54.067Z,7.10
2022-12-27T19:24:26.370Z,5.50
2022-12-27T19:26:54.652Z,5.55
2022-12-27T19:29:23.411Z,5.70
2022-12-27T19:31:58.841Z,5.22
2022-12-27T19:34:27.389Z,5.38
2022-12-27T19:36:54.873Z,4.53
2022-12-27T19:39:33.345Z,4.57
2022-12-27T19:42:06.536Z,6.05
2022-12-27T19:44:33.881Z,5.65
2022-12-27T19:47:01.188Z,5.97
2022-12-27T19:49:44.919Z,6.53
2022-12-27T19:52:16.816Z,10.35
2022-12-27T19:54:44.238Z,7.03
2022-12-27T19:57:12.556Z,6.53
2022-12-27T19:59:39.855Z,6.90
2022-12-27T20:02:07.564Z,6.47
2022-12-27T20:04:35.088Z,9.30
2022-12-27T20:07:02.632Z,8.50
2022-12-27T20:09:29.998Z,8.30
2022-12-27T20:11:57.307Z,8.13
2022-12-27T20:14:24.643Z,7.55
2022-12-27T20:16:52.096Z,8.50
2022-12-27T20:19:20.242Z,7.65
2022-12-27T20:21:47.936Z,8.70
2022-12-27T20:24:15.381Z,9.00
2022-12-27T20:26:43.164Z,8.77
2022-12-27T20:29:11.216Z,8.95
2022-12-27T20:31:44.756Z,9.32
2022-12-27T20:34:12.906Z,8.90
2022-12-27T20:36:41.542Z,8.20
2022-12-27T20:39:09.590Z,8.05
2022-12-27T20:41:37.036Z,8.13
2022-12-27T20:44:04.536Z,8.30
2022-12-27T20:46:31.858Z,9.07
2022-12-27T20:49:00.329Z,9.50
2022-12-27T20:51:28.263Z,9.05
2022-12-27T20:53:56.675Z,8.88
2022-12-27T20:56:24.223Z,9.77
2022-12-27T20:58:51.654Z,8.43
2022-12-27T21:01:20.984Z,8.48
2022-12-27T21:03:48.492Z,8.35
2022-12-27T21:06:17.930Z,8.15
2022-12-27T21:08:49.117Z,9.68
2022-12-27T21:11:24.081Z,8.77
2022-12-27T21:13:51.458Z,8.30
2022-12-27T21:16:23.653Z,7.72
2022-12-27T21:18:51.018Z,7.80
2022-12-27T21:21:20.260Z,7.85
2022-12-27T21:23:47.920Z,7.75
2022-12-27T21:26:16.981Z,8.32
2022-12-27T21:28:44.434Z,7.85
2022-12-27T21:31:12.684Z,7.88
2022-12-27T21:33:40.029Z,7.40
2022-12-27T21:36:11.686Z,7.50
2022-12-27T21:38:39.051Z,8.20
2022-12-27T21:41:09.646Z,8.00
2022-12-27T21:43:36.976Z,7.63
2022-12-27T21:46:15.151Z,7.53
2022-12-27T21:48:43.028Z,7.88
2022-12-27T21:51:12.202Z,8.10
2022-12-27T21:53:39.971Z,6.93
2022-12-27T21:56:07.559Z,7.90
2022-12-27T21:58:35.988Z,7.28
2022-12-27T22:01:08.829Z,6.93
2022-12-27T22:03:37.458Z,6.50
2022-12-27T22:06:21.158Z,5.80
2022-12-27T22:08:49.803Z,6.93
2022-12-27T22:11:17.565Z,6.43
2022-12-27T22:13:45.121Z,6.75
2022-12-27T22:16:14.024Z,6.45
2022-12-27T22:18:42.773Z,6.15
2022-12-27T22:21:11.669Z,6.78
2022-12-27T22:23:41.142Z,6.10
2022-12-27T22:26:12.908Z,6.68
2022-12-27T22:28:40.699Z,6.18
2022-12-27T22:31:09.279Z,6.82
2022-12-27T22:33:36.735Z,6.50
2022-12-27T22:36:12.213Z,5.60
2022-12-27T22:38:40.772Z,5.97
2022-12-27T22:41:20.102Z,6.32
2022-12-27T22:44:01.201Z,6.35
2022-12-27T22:46:39.328Z,6.05
2022-12-27T22:49:16.159Z,5.80
2022-12-27T22:51:43.655Z,5.90
2022-12-27T22:54:11.062Z,5.97
2022-12-27T22:56:39.725Z,6.10
2022-12-27T22:59:08.094Z,6.45
2022-12-27T23:01:36.028Z,5.90
2022-12-27T23:04:04.886Z,5.95
2022-12-27T23:06:33.059Z,6.07
2022-12-27T23:09:00.625Z,5.20
2022-12-27T23:11:29.728Z,4.97
2022-12-27T23:13:58.549Z,4.90
2022-12-27T23:16:26.017Z,5.60
2022-12-27T23:18:53.458Z,5.40
2022-12-27T23:21:24.479Z,5.13
2022-12-27T23:23:52.545Z,5.20
2022-12-27T23:26:21.743Z,5.00
2022-12-27T23:28:50.159Z,5.18
2022-12-27T23:31:17.945Z,5.15
2022-12-27T23:33:45.368Z,5.20
2022-12-27T23:36:12.962Z,5.28
2022-12-27T23:38:41.444Z,5.47
2022-12-27T23:41:09.126Z,4.75
2022-12-27T23:43:55.339Z,4.57
2022-12-27T23:46:33.428Z,4.60
2022-12-27T23:49:02.115Z,4.28
2022-12-27T23:51:30.580Z,4.80
2022-12-27T23:53:57.986Z,4.97
2022-12-27T23:56:29.903Z,4.90
2022-12-27T23:58:58.041Z,4.63
